.
WxDataArchive / Data Records for 2013-03-13
2013-03-12 March 2013 2013-03-14

Data Records for Wednesday, 13 March 2013

Time	Temp	Chill	HIndex	Humid	Dewpt	 Wind 	HiWind	WindDir	Rain 	Barom 
-----	----	-----	------	-----	-----	------	------	-------	-----	----- 
00:00	30.4	30.4	30.4	87	27.0	1	3	248	0.00	29.978 
00:05	30.6	30.6	30.6	86	26.9	1	4	248	0.00	29.978 
00:10	30.7	30.7	30.7	86	27.0	1	4	248	0.00	29.978 
00:15	30.9	30.9	30.9	85	26.9	2	4	248	0.00	29.976 
00:20	30.9	30.9	30.9	85	26.9	2	5	248	0.00	29.976 
00:25	31.0	31.0	31.0	85	27.0	2	6	248	0.00	29.976 
00:30	31.0	31.0	31.0	84	26.7	2	6	248	0.00	29.974 
00:35	31.0	31.0	31.0	84	26.7	2	7	248	0.00	29.974 
00:40	31.0	31.0	31.0	84	26.7	2	5	248	0.00	29.974 
00:45	30.9	30.9	30.9	83	26.4	3	6	248	0.00	29.972 
00:50	30.9	30.9	30.9	83	26.4	2	5	248	0.00	29.972 
00:55	30.9	30.9	30.9	83	26.4	2	4	248	0.00	29.972 
01:00	30.7	30.7	30.7	82	25.9	2	5	248	0.00	29.970 
01:05	30.4	30.4	30.4	82	25.6	2	4	248	0.00	29.970 
01:10	30.3	30.3	30.3	82	25.5	2	9	248	0.00	29.970 
01:15	30.1	30.1	30.1	82	25.3	1	6	248	0.00	29.965 
01:20	30.0	30.0	30.0	82	25.2	2	5	248	0.00	29.965 
01:25	29.8	29.8	29.8	82	25.0	2	5	248	0.00	29.965 
01:30	29.8	29.8	29.8	82	25.0	1	4	248	0.00	29.964 
01:35	29.8	29.8	29.8	82	25.0	1	4	248	0.00	29.964 
01:40	29.8	29.8	29.8	82	25.0	1	2	248	0.00	29.964 
01:45	29.8	29.8	29.8	82	25.0	1	3	248	0.00	29.962 
01:50	29.8	29.8	29.8	81	24.7	2	6	248	0.00	29.962 
01:55	29.8	29.8	29.8	81	24.7	2	6	248	0.00	29.962 
02:00	29.8	29.8	29.8	81	24.7	3	5	248	0.00	29.967 
02:05	29.8	29.8	29.8	80	24.4	3	6	270	0.00	29.967 
02:10	29.8	29.8	29.8	80	24.4	3	6	248	0.00	29.967 
02:15	29.8	29.8	29.8	80	24.4	2	4	248	0.00	29.971 
02:20	29.5	29.5	29.5	81	24.4	2	5	248	0.00	29.971 
02:25	29.4	29.4	29.4	81	24.3	3	5	270	0.00	29.971 
02:30	29.1	29.1	29.1	80	23.7	3	5	270	0.00	29.969 
02:35	29.1	29.1	29.1	79	23.4	2	4	248	0.00	29.969 
02:40	29.0	29.0	29.0	78	23.0	2	4	270	0.00	29.969 
02:45	28.8	28.8	28.8	77	22.5	2	5	270	0.00	29.964 
02:50	28.8	28.8	28.8	76	22.2	2	4	270	0.00	29.964 
02:55	28.7	28.7	28.7	75	21.8	2	4	248	0.00	29.964 
03:00	28.5	28.5	28.5	75	21.6	2	4	270	0.00	29.966 
03:05	28.5	28.5	28.5	74	21.3	2	5	270	0.00	29.966 
03:10	28.4	28.4	28.4	74	21.2	2	5	248	0.00	29.966 
03:15	28.2	28.2	28.2	74	21.0	2	4	248	0.00	29.972 
03:20	28.2	28.2	28.2	73	20.7	2	4	270	0.00	29.972 
03:25	28.1	28.1	28.1	73	20.6	1	3	315	0.00	29.972 
03:30	28.1	28.1	28.1	73	20.6	1	3	270	0.00	29.972 
03:35	27.9	27.9	27.9	73	20.4	1	4	270	0.00	29.972 
03:40	27.8	27.8	27.8	73	20.3	1	2	270	0.00	29.972 
03:45	27.6	27.6	27.6	73	20.1	1	4	270	0.00	29.972 
03:50	27.6	27.6	27.6	73	20.1	2	4	270	0.00	29.972 
03:55	27.6	27.6	27.6	73	20.1	2	4	270	0.00	29.972 
04:00	27.5	27.5	27.5	73	20.0	1	3	248	0.00	29.970 
04:05	27.5	27.5	27.5	73	20.0	1	5	248	0.00	29.970 
04:10	27.5	27.5	27.5	74	20.3	2	6	248	0.00	29.970 
04:15	27.6	27.6	27.6	74	20.4	2	5	248	0.00	29.968 
04:20	27.6	27.6	27.6	75	20.7	1	4	248	0.00	29.968 
04:25	27.5	27.5	27.5	75	20.6	3	6	248	0.00	29.968 
04:30	27.5	27.5	27.5	75	20.6	2	4	248	0.00	29.967 
04:35	27.3	27.3	27.3	75	20.4	1	3	248	0.00	29.967 
04:40	27.3	27.3	27.3	76	20.8	1	4	248	0.00	29.967 
04:45	27.3	27.3	27.3	77	21.1	1	4	248	0.00	29.971 
04:50	27.3	27.3	27.3	77	21.1	2	4	248	0.00	29.971 
04:55	27.3	27.3	27.3	77	21.1	1	3	248	0.00	29.971 
05:00	27.3	27.3	27.3	78	21.4	1	4	248	0.00	29.977 
05:05	27.3	27.3	27.3	78	21.4	1	3	248	0.00	29.977 
05:10	27.3	27.3	27.3	79	21.7	1	4	248	0.00	29.977 
05:15	27.3	27.3	27.3	79	21.7	1	3	248	0.00	29.978 
05:20	27.2	27.2	27.2	79	21.6	1	5	248	0.00	29.978 
05:25	27.2	27.2	27.2	79	21.6	2	4	248	0.00	29.978 
05:30	27.2	27.2	27.2	80	21.9	1	3	248	0.00	29.981 
05:35	27.0	27.0	27.0	80	21.7	1	2	248	0.00	29.981 
05:40	26.9	26.9	26.9	81	21.9	1	3	248	0.00	29.981 
05:45	26.7	26.7	26.7	82	22.0	1	3	248	0.00	29.991 
05:50	26.6	26.6	26.6	83	22.1	1	3	248	0.00	29.991 
05:55	26.4	26.4	26.4	84	22.2	1	3	248	0.00	29.991 
06:00	26.3	26.3	26.3	84	22.1	1	4	248	0.00	29.994 
06:05	26.3	26.3	26.3	84	22.1	2	4	248	0.00	29.994 
06:10	26.3	26.3	26.3	84	22.1	1	3	248	0.00	29.994 
06:15	26.3	26.3	26.3	84	22.1	1	6	248	0.00	29.999 
06:20	26.3	26.3	26.3	83	21.9	1	3	248	0.00	29.999 
06:25	26.3	26.3	26.3	83	21.9	1	6	248	0.00	29.999 
06:30	26.3	26.3	26.3	83	21.9	1	4	248	0.00	30.006 
06:35	26.3	26.3	26.3	83	21.9	1	3	248	0.00	30.006 
06:40	26.3	26.3	26.3	82	21.6	1	6	248	0.00	30.006 
06:45	26.4	26.4	26.4	82	21.7	1	5	248	0.00	30.010 
06:50	26.4	26.4	26.4	82	21.7	1	4	248	0.00	30.010 
06:55	26.4	26.4	26.4	83	22.0	2	4	248	0.00	30.010 
07:00	26.4	26.4	26.4	83	22.0	2	4	248	0.00	30.013 
07:05	26.4	26.4	26.4	82	21.7	2	4	248	0.00	30.013 
07:10	26.4	26.4	26.4	82	21.7	2	4	270	0.00	30.013 
07:15	26.4	26.4	26.4	81	21.4	2	3	248	0.00	30.021 
07:20	26.4	26.4	26.4	81	21.4	2	4	270	0.00	30.021 
07:25	26.4	26.4	26.4	80	21.1	2	6	270	0.00	30.021 
07:30	26.4	26.4	26.4	79	20.8	2	6	270	0.00	30.024 
07:35	26.4	26.4	26.4	78	20.5	2	5	248	0.00	30.024 
07:40	26.4	26.4	26.4	78	20.5	2	5	270	0.00	30.024 
07:45	26.4	26.4	26.4	78	20.5	2	4	248	0.00	30.028 
07:50	26.4	26.4	26.4	78	20.5	2	6	248	0.00	30.028 
07:55	26.3	26.3	26.3	78	20.4	2	4	248	0.00	30.028 
08:00	26.3	26.3	26.3	78	20.4	3	7	248	0.00	30.032 
08:05	26.1	26.1	26.1	78	20.2	3	7	248	0.00	30.032 
08:10	26.1	26.1	26.1	78	20.2	2	4	248	0.00	30.032 
08:15	26.1	26.1	26.1	78	20.2	2	4	248	0.00	30.040 
08:20	26.1	26.1	26.1	78	20.2	2	5	270	0.00	30.040 
08:25	26.1	26.1	26.1	78	20.2	3	5	270	0.00	30.040 
08:30	26.3	26.3	26.3	78	20.4	2	5	248	0.00	30.044 
08:35	26.3	26.3	26.3	78	20.4	2	4	248	0.00	30.044 
08:40	26.4	26.4	26.4	78	20.5	2	6	248	0.00	30.044 
08:45	26.4	26.4	26.4	79	20.8	2	4	248	0.00	30.048 
08:50	26.3	26.3	26.3	80	21.0	3	9	270	0.00	30.048 
08:55	26.3	26.3	26.3	81	21.3	2	5	270	0.00	30.048 
09:00	26.1	26.1	26.1	81	21.1	2	4	270	0.00	30.058 
09:05	26.0	26.0	26.0	82	21.3	3	6	270	0.00	30.058 
09:10	25.8	25.8	25.8	83	21.4	2	5	270	0.00	30.058 
09:15	25.7	25.7	25.7	84	21.5	1	4	315	0.00	30.067 
09:20	25.4	25.4	25.4	85	21.5	2	5	270	0.00	30.067 
09:25	25.3	25.3	25.3	86	21.7	2	10	338	0.00	30.067 
09:30	24.8	24.8	24.8	86	21.2	2	4	315	0.00	30.076 
09:35	24.8	24.8	24.8	86	21.2	1	5	315	0.00	30.076 
09:40	25.0	25.0	25.0	87	21.7	1	4	315	0.00	30.076 
09:45	24.8	24.8	24.8	87	21.5	2	4	315	0.00	30.080 
09:50	25.0	25.0	25.0	87	21.7	1	3	270	0.00	30.080 
09:55	25.1	25.1	25.1	87	21.8	1	4	270	0.00	30.080 
10:00	25.1	25.1	25.1	87	21.8	2	5	270	0.00	30.090 
10:05	25.3	25.3	25.3	87	22.0	2	5	270	0.00	30.090 
10:10	25.4	25.4	25.4	87	22.1	1	6	248	0.00	30.090 
10:15	25.6	25.6	25.6	86	22.0	2	7	315	0.00	30.092 
10:20	26.0	26.0	26.0	85	22.1	3	7	248	0.00	30.092 
10:25	26.4	26.4	26.4	84	22.2	3	5	248	0.00	30.092 
10:30	26.7	22.0	26.7	80	21.4	4	11	292	0.00	30.095 
10:35	26.6	20.7	26.6	74	19.5	5	10	315	0.00	30.095 
10:40	26.9	26.9	26.9	73	19.4	3	5	292	0.00	30.095 
10:45	26.7	26.7	26.7	72	18.9	3	7	315	0.00	30.102 
10:50	26.6	26.6	26.6	73	19.1	2	6	270	0.00	30.102 
10:55	26.7	26.7	26.7	75	19.9	2	4	270	0.00	30.102 
11:00	27.0	27.0	27.0	75	20.2	2	5	270	0.00	30.108 
11:05	27.2	27.2	27.2	74	20.0	2	4	270	0.00	30.108 
11:10	27.3	27.3	27.3	71	19.2	3	7	315	0.00	30.108 
11:15	27.5	27.5	27.5	69	18.7	3	7	248	0.00	30.113 
11:20	27.5	27.5	27.5	69	18.7	3	11	248	0.00	30.113 
11:25	27.3	27.3	27.3	68	18.2	3	7	292	0.00	30.113 
11:30	27.2	27.2	27.2	67	17.7	3	7	292	0.00	30.126 
11:35	27.5	27.5	27.5	67	18.0	3	9	270	0.01	30.126 
11:40	27.8	23.2	27.8	67	18.3	4	9	248	0.00	30.126 
11:45	27.9	23.3	27.9	67	18.4	4	10	270	0.00	30.125 
11:50	28.2	28.2	28.2	66	18.3	3	7	270	0.00	30.125 
11:55	28.2	28.2	28.2	65	18.0	3	7	270	0.00	30.125 
12:00	28.1	28.1	28.1	65	17.9	3	9	0	0.00	30.127 
12:05	28.2	28.2	28.2	64	17.6	3	7	338	0.00	30.127 
12:10	28.4	23.9	28.4	63	17.4	4	7	270	0.00	30.127 
12:15	28.4	22.8	28.4	62	17.1	5	10	270	0.00	30.138 
12:20	28.5	24.0	28.5	62	17.2	4	9	270	0.00	30.138 
12:25	28.5	24.0	28.5	63	17.5	4	10	270	0.00	30.138 
12:30	28.7	24.3	28.7	63	17.7	4	9	270	0.00	30.137 
12:35	29.1	29.1	29.1	63	18.1	3	7	248	0.00	30.137 
12:40	29.1	24.7	29.1	62	17.7	4	8	270	0.00	30.137 
12:45	29.0	24.6	29.0	62	17.6	4	9	270	0.00	30.139 
12:50	29.4	25.1	29.4	62	18.0	4	8	270	0.00	30.139 
12:55	29.4	25.1	29.4	61	17.6	4	7	292	0.00	30.139 
13:00	29.3	29.3	29.3	61	17.5	3	5	270	0.00	30.143 
13:05	29.5	29.5	29.5	62	18.1	3	6	270	0.00	30.143 
13:10	29.4	29.4	29.4	61	17.6	3	10	248	0.00	30.143 
13:15	29.0	24.6	29.0	60	16.9	4	7	315	0.00	30.154 
13:20	28.7	28.7	28.7	62	17.4	3	6	338	0.00	30.154 
13:25	28.5	28.5	28.5	64	17.9	3	9	270	0.00	30.154 
13:30	28.7	28.7	28.7	64	18.1	3	6	248	0.00	30.157 
13:35	28.8	24.4	28.8	63	17.8	4	9	270	0.00	30.157 
13:40	29.3	29.3	29.3	63	18.3	3	7	248	0.00	30.157 
13:45	29.4	29.4	29.4	61	17.6	3	10	338	0.00	30.159 
13:50	29.4	29.4	29.4	63	18.4	3	6	270	0.00	30.159 
13:55	28.8	24.4	28.8	65	18.5	4	6	270	0.00	30.159 
14:00	28.7	28.7	28.7	67	19.2	3	6	248	0.00	30.166 
14:05	28.5	24.0	28.5	68	19.3	4	7	270	0.00	30.166 
14:10	27.9	27.9	27.9	70	19.4	3	6	270	0.00	30.166 
14:15	27.6	23.0	27.6	73	20.1	4	9	270	0.00	30.174 
14:20	27.5	27.5	27.5	75	20.6	3	6	270	0.00	30.174 
14:25	27.6	27.6	27.6	75	20.7	2	5	315	0.00	30.174 
14:30	27.9	23.3	27.9	72	20.1	4	6	248	0.00	30.174 
14:35	27.8	23.2	27.8	72	20.0	4	9	270	0.00	30.174 
14:40	28.1	28.1	28.1	70	19.6	3	11	270	0.00	30.174 
14:45	28.2	28.2	28.2	69	19.4	3	6	270	0.00	30.175 
14:50	28.2	28.2	28.2	69	19.4	3	7	270	0.00	30.175 
14:55	27.9	27.9	27.9	69	19.1	3	6	270	0.00	30.175 
15:00	27.9	23.3	27.9	68	18.7	4	9	270	0.00	30.178 
15:05	28.1	23.6	28.1	65	17.9	4	11	270	0.00	30.178 
15:10	28.7	28.7	28.7	66	18.8	2	6	270	0.00	30.178 
15:15	29.0	29.0	29.0	63	18.0	3	10	248	0.00	30.181 
15:20	29.1	29.1	29.1	63	18.1	3	5	270	0.00	30.181 
15:25	29.3	29.3	29.3	64	18.7	3	5	270	0.00	30.181 
15:30	29.1	29.1	29.1	64	18.5	3	6	270	0.00	30.187 
15:35	29.0	24.6	29.0	61	17.3	4	7	270	0.00	30.187 
15:40	29.1	29.1	29.1	62	17.7	3	9	270	0.00	30.187 
15:45	29.1	29.1	29.1	62	17.7	3	7	248	0.00	30.189 
15:50	29.0	24.6	29.0	62	17.6	4	7	270	0.00	30.189 
15:55	28.8	28.8	28.8	63	17.8	3	7	270	0.00	30.189 
16:00	28.7	24.3	28.7	63	17.7	4	6	270	0.00	30.194 
16:05	29.0	29.0	29.0	66	19.1	2	7	315	0.00	30.194 
16:10	29.1	29.1	29.1	65	18.8	3	5	270	0.00	30.194 
16:15	28.8	24.4	28.8	65	18.5	4	7	248	0.00	30.200 
16:20	28.7	28.7	28.7	66	18.8	3	5	270	0.00	30.200 
16:25	28.5	24.0	28.5	68	19.3	4	6	270	0.00	30.200 
16:30	28.8	28.8	28.8	68	19.6	3	6	270	0.00	30.204 
16:35	28.7	24.3	28.7	67	19.2	4	10	270	0.00	30.204 
16:40	29.0	29.0	29.0	68	19.8	3	7	248	0.00	30.204 
16:45	29.0	29.0	29.0	66	19.1	3	7	270	0.00	30.207 
16:50	28.7	28.7	28.7	66	18.8	3	7	248	0.00	30.207 
16:55	28.4	28.4	28.4	68	19.2	3	6	270	0.00	30.207 
17:00	28.2	28.2	28.2	69	19.4	3	7	270	0.00	30.220 
17:05	28.4	28.4	28.4	68	19.2	3	8	315	0.00	30.220 
17:10	28.5	28.5	28.5	67	19.0	2	6	270	0.00	30.220 
17:15	28.4	28.4	28.4	69	19.5	3	6	248	0.00	30.222 
17:20	28.2	28.2	28.2	68	19.0	3	7	292	0.00	30.222 
17:25	28.2	28.2	28.2	67	18.7	3	10	270	0.00	30.222 
17:30	28.1	28.1	28.1	68	18.9	3	9	292	0.00	30.226 
17:35	28.1	23.6	28.1	66	18.2	4	9	270	0.00	30.226 
17:40	28.1	28.1	28.1	66	18.2	2	6	338	0.00	30.226 
17:45	28.2	28.2	28.2	64	17.6	3	6	248	0.00	30.229 
17:50	28.4	28.4	28.4	61	16.7	3	6	270	0.00	30.229 
17:55	28.5	28.5	28.5	60	16.4	2	5	248	0.00	30.229 
18:00	28.7	24.3	28.7	57	15.4	4	9	270	0.00	30.237 
18:05	28.7	28.7	28.7	57	15.4	3	7	292	0.00	30.237 
18:10	28.7	24.3	28.7	57	15.4	4	10	270	0.00	30.237 
18:15	28.7	24.3	28.7	58	15.8	4	8	270	0.00	30.240 
18:20	28.8	28.8	28.8	58	15.9	3	7	270	0.00	30.240 
18:25	28.7	28.7	28.7	58	15.8	2	5	292	0.00	30.240 
18:30	28.5	28.5	28.5	57	15.2	3	8	315	0.00	30.246 
18:35	28.4	23.9	28.4	56	14.7	4	9	315	0.00	30.246 
18:40	28.4	28.4	28.4	57	15.1	2	5	315	0.00	30.246 
18:45	28.4	28.4	28.4	58	15.5	3	10	292	0.00	30.249 
18:50	28.4	28.4	28.4	57	15.1	3	6	292	0.00	30.249 
18:55	28.4	28.4	28.4	57	15.1	2	9	292	0.00	30.249 
19:00	28.4	28.4	28.4	56	14.7	2	7	315	0.00	30.246 
19:05	28.4	28.4	28.4	55	14.3	3	7	270	0.00	30.246 
19:10	28.2	23.7	28.2	55	14.1	4	10	270	0.00	30.246 
19:15	28.1	28.1	28.1	56	14.5	3	6	270	0.00	30.253 
19:20	27.9	27.9	27.9	56	14.3	2	5	270	0.00	30.253 
19:25	27.8	27.8	27.8	56	14.2	2	6	270	0.00	30.253 
19:30	27.8	27.8	27.8	56	14.2	3	10	292	0.00	30.257 
19:35	27.6	27.6	27.6	56	14.0	3	6	292	0.00	30.257 
19:40	27.6	27.6	27.6	56	14.0	3	5	315	0.00	30.257 
19:45	27.5	27.5	27.5	56	13.9	2	9	338	0.00	30.260 
19:50	27.3	27.3	27.3	56	13.7	3	5	338	0.00	30.260 
19:55	27.3	27.3	27.3	57	14.1	2	7	338	0.00	30.260 
20:00	27.2	27.2	27.2	57	14.0	2	4	292	0.00	30.269 
20:05	27.0	27.0	27.0	58	14.2	2	7	248	0.00	30.269 
20:10	27.0	27.0	27.0	58	14.2	1	4	270	0.00	30.269 
20:15	26.9	26.9	26.9	57	13.7	2	6	270	0.00	30.272 
20:20	26.9	26.9	26.9	58	14.1	1	4	248	0.00	30.272 
20:25	26.9	26.9	26.9	58	14.1	2	7	270	0.00	30.272 
20:30	26.7	26.7	26.7	58	13.9	1	4	270	0.00	30.274 
20:35	26.7	26.7	26.7	58	13.9	2	6	270	0.00	30.274 
20:40	26.6	26.6	26.6	58	13.8	1	4	248	0.00	30.274 
20:45	26.6	26.6	26.6	58	13.8	1	4	248	0.00	30.273 
20:50	26.4	26.4	26.4	58	13.7	1	3	248	0.00	30.273 
20:55	26.4	26.4	26.4	59	14.0	1	3	270	0.00	30.273 
21:00	26.3	26.3	26.3	59	13.9	1	4	248	0.00	30.276 
21:05	26.3	26.3	26.3	59	13.9	2	4	270	0.00	30.276 
21:10	26.3	26.3	26.3	59	13.9	2	5	270	0.00	30.276 
21:15	26.1	26.1	26.1	59	13.8	1	4	292	0.00	30.284 
21:20	26.1	26.1	26.1	59	13.8	1	4	248	0.00	30.284 
21:25	26.0	26.0	26.0	60	14.0	1	2	338	0.00	30.284 
21:30	26.0	26.0	26.0	60	14.0	1	2	338	0.00	30.287 
21:35	25.8	25.8	25.8	60	13.9	1	2	292	0.00	30.287 
21:40	25.8	25.8	25.8	61	14.2	1	3	248	0.00	30.287 
21:45	25.8	25.8	25.8	60	13.9	2	4	270	0.00	30.289 
21:50	25.8	25.8	25.8	60	13.9	1	3	292	0.00	30.289 
21:55	25.8	25.8	25.8	61	14.2	1	2	292	0.00	30.289 
22:00	25.7	25.7	25.7	61	14.1	1	3	292	0.00	30.288 
22:05	25.6	25.6	25.6	61	14.0	1	3	270	0.00	30.288 
22:10	25.6	25.6	25.6	62	14.4	1	4	270	0.00	30.288 
22:15	25.4	25.4	25.4	62	14.2	0	3	270	0.00	30.287 
22:20	25.4	25.4	25.4	62	14.2	0	1	270	0.00	30.287 
22:25	25.3	25.3	25.3	63	14.5	0	2	270	0.00	30.287 
22:30	25.1	25.1	25.1	63	14.3	0	2	270	0.00	30.292 
22:35	25.1	25.1	25.1	64	14.7	0	2	270	0.00	30.292 
22:40	25.1	25.1	25.1	64	14.7	0	2	270	0.00	30.292 
22:45	25.0	25.0	25.0	64	14.6	0	1	270	0.00	30.298 
22:50	25.0	25.0	25.0	65	14.9	0	2	270	0.00	30.298 
22:55	24.8	24.8	24.8	65	14.7	0	2	270	0.00	30.298 
23:00	24.8	24.8	24.8	65	14.7	0	1	270	0.00	30.301 
23:05	24.8	24.8	24.8	65	14.7	0	2	270	0.00	30.301 
23:10	24.8	24.8	24.8	65	14.7	0	1	270	0.00	30.301 
23:15	24.8	24.8	24.8	64	14.4	1	2	270	0.00	30.302 
23:20	24.8	24.8	24.8	64	14.4	1	4	270	0.00	30.302 
23:25	24.8	24.8	24.8	64	14.4	0	2	270	0.00	30.302 
23:30	24.8	24.8	24.8	64	14.4	0	2	270	0.00	30.302 
23:35	24.8	24.8	24.8	64	14.4	1	2	270	0.00	30.302 
23:40	24.7	24.7	24.7	64	14.3	0	2	270	0.00	30.302 
23:45	24.7	24.7	24.7	64	14.3	0	2	270	0.00	30.303 
23:50	24.7	24.7	24.7	64	14.3	0	2	270	0.00	30.303 
23:55	24.5	24.5	24.5	64	14.1	1	2	270	0.00	30.303 

CoCoRaHS
IN-AL-39
A2 Web Hosting
Creative Commons License
GoDaddy
search engine by freefind advanced

loaded 2018-11-16 10:39:32 • last modified 2010-11-18 10:43:29
Privacy PolicyDisclaimer
• wx.awcolley.com is powered by PmWiki v.2002016 •
• all content (unless otherwise noted) © 2018 A W Colley